»·PEaware :: N172SP KSBA-KSMX

N172SP :: KSBA-KSMX

FLIGHT INFORMATION

Flight Status: Arrived
Operator: Privately registered:
United States
More flights under this callsign
Pilot: Alan C. (18866)
Aircraft: CESSNA 172 SKYHAWK
(C172)
More flights by this aircraft type
Origin: KSBA Santa Barbara Mun
United States
Destination: KSMX Santa Maria Pub/Capt Hancock
United States
More flights between these airports :: More routes between these airports
Route: +GVO
File this flight plan on PilotEdge
Remarks: FF
Altitude:
(Current/Filed)
4,500ft
Speed:
(Current/Filed)
115kts
Departed: 15-May-18 07:03 PM
Arrived: 15-May-18 07:34 PM
Distance/Time
Traveled:
0nm/0:31
Distance/Time
To Go:
Arrived

Flight Plot

Page will automatically refresh every two minutes.


Map Options




Map Legend


Flown Route
Filed Route
Departure Airport
Arrival Airport
Navaid (VOR, NDB)
Fix

Horizontal Profiles

Position Reports

Time Latitude Longitude Heading Altitude Ground
Speed
15-May-18 18:49 34.422664 -119.835593 340 17ft 0kts
15-May-18 18:50 34.422664 -119.835593 340 17ft 0kts
15-May-18 18:51 34.422664 -119.835593 340 17ft 0kts
15-May-18 18:52 34.422664 -119.835593 340 17ft 0kts
15-May-18 18:53 34.422664 -119.835593 340 17ft 0kts
15-May-18 18:54 34.422664 -119.835593 340 17ft 0kts
15-May-18 18:55 34.422664 -119.835593 340 17ft 0kts
15-May-18 18:56 34.422664 -119.835593 340 17ft 0kts
15-May-18 18:57 34.422664 -119.835593 340 17ft 0kts
15-May-18 18:58 34.422664 -119.835593 340 17ft 0kts
15-May-18 18:59 34.423281 -119.835434 1 17ft 8kts
15-May-18 19:00 34.426026 -119.835505 5 17ft 9kts
15-May-18 19:01 34.426883 -119.835153 16 17ft 0kts
15-May-18 19:02 34.427881 -119.835230 272 17ft 0kts
15-May-18 19:03 34.427338 -119.852556 265 577ft 77kts
15-May-18 19:04 34.423233 -119.879021 260 1284ft 82kts
15-May-18 19:05 34.419830 -119.907164 267 1303ft 85kts
15-May-18 19:06 34.426875 -119.932538 326 1495ft 84kts
15-May-18 19:07 34.446346 -119.952426 316 2192ft 87kts
15-May-18 19:08 34.465545 -119.969116 321 3119ft 87kts
15-May-18 19:09 34.486228 -119.981848 314 4011ft 87kts
15-May-18 19:10 34.501499 -120.004208 295 4507ft 85kts
15-May-18 19:11 34.510169 -120.033197 284 4572ft 102kts
15-May-18 19:12 34.521923 -120.065120 289 4576ft 103kts
15-May-18 19:13 34.539165 -120.093446 324 4572ft 112kts
15-May-18 19:14 34.563090 -120.117000 305 4480ft 114kts
15-May-18 19:15 34.587057 -120.141140 324 4484ft 112kts
15-May-18 19:16 34.613153 -120.161514 310 4477ft 109kts
15-May-18 19:17 34.629682 -120.190300 307 4547ft 103kts
15-May-18 19:18 34.657269 -120.206892 318 4573ft 109kts
15-May-18 19:19 34.678125 -120.232064 306 4581ft 108kts
15-May-18 19:20 34.698753 -120.259161 313 4590ft 105kts
15-May-18 19:21 34.721450 -120.283198 313 4548ft 111kts
15-May-18 19:22 34.745432 -120.305957 312 4542ft 110kts
15-May-18 19:23 34.766759 -120.330728 309 4020ft 107kts
15-May-18 19:24 34.787983 -120.354396 315 3469ft 103kts
15-May-18 19:25 34.804546 -120.377699 296 3328ft 85kts
15-May-18 19:26 34.822428 -120.391864 326 3291ft 85kts
15-May-18 19:27 34.841745 -120.412425 317 3198ft 89kts
15-May-18 19:28 34.862268 -120.429110 322 3229ft 92kts
15-May-18 19:29 34.883251 -120.453263 308 2197ft 118kts
15-May-18 19:30 34.904191 -120.477197 320 1435ft 90kts
15-May-18 19:31 34.924451 -120.496286 324 1136ft 92kts
15-May-18 19:32 34.923206 -120.479471 157 716ft 120kts
15-May-18 19:33 34.902103 -120.457064 134 265ft 70kts
15-May-18 19:34 34.897004 -120.450249 86 265ft 2kts
15-May-18 19:35 34.897714 -120.449983 0 265ft 3kts
15-May-18 19:36 34.899326 -120.451091 316 265ft 9kts
15-May-18 19:37 34.900825 -120.450100 4 265ft 0kts
15-May-18 19:45 34.422664 -119.835593 340 17ft 0kts
15-May-18 19:46 34.422664 -119.835593 340 17ft 0kts
15-May-18 19:47 34.422959 -119.835458 11 17ft 8kts
15-May-18 19:48 34.425597 -119.835826 349 17ft 9kts

Navigation Log

Ident Type
1. KSBA Airport
2. GVO Navaid
3. KSMX Airport